createdAt,value
2018-05-05T00:01:43.430Z,23.68
2018-05-05T00:04:09.752Z,23.73
2018-05-05T00:06:36.072Z,23.71
2018-05-05T00:09:02.400Z,23.70
2018-05-05T00:11:28.760Z,23.69
2018-05-05T00:13:55.086Z,23.73
2018-05-05T00:16:21.437Z,23.66
2018-05-05T00:18:47.812Z,23.63
2018-05-05T00:21:14.156Z,23.66
2018-05-05T00:23:40.520Z,23.63
2018-05-05T00:26:06.876Z,23.70
2018-05-05T00:28:33.189Z,23.67
2018-05-05T00:30:59.596Z,23.63
2018-05-05T00:33:25.917Z,23.57
2018-05-05T00:35:52.312Z,23.50
2018-05-05T00:38:18.670Z,23.62
2018-05-05T00:40:45.025Z,23.63
2018-05-05T00:43:11.427Z,23.60
2018-05-05T00:45:37.790Z,23.63
2018-05-05T00:48:04.201Z,23.48
2018-05-05T00:50:30.524Z,23.60
2018-05-05T00:52:56.832Z,23.56
2018-05-05T00:55:23.156Z,23.57
2018-05-05T00:57:49.544Z,23.57
2018-05-05T01:00:15.863Z,23.59
2018-05-05T01:02:42.213Z,23.57
2018-05-05T01:05:08.579Z,23.49
2018-05-05T01:07:34.900Z,23.50
2018-05-05T01:10:01.268Z,23.53
2018-05-05T01:12:27.597Z,23.53
2018-05-05T01:14:53.970Z,23.49
2018-05-05T01:17:20.304Z,23.54
2018-05-05T01:19:46.653Z,23.53
2018-05-05T01:22:13.004Z,23.52
2018-05-05T01:24:39.625Z,23.46
2018-05-05T01:27:05.969Z,23.45
2018-05-05T01:29:32.327Z,23.49
2018-05-05T01:31:58.651Z,23.51
2018-05-05T01:34:25.075Z,23.46
2018-05-05T01:36:51.400Z,23.47
2018-05-05T01:39:17.732Z,23.48
2018-05-05T01:41:44.071Z,23.43
2018-05-05T01:44:10.436Z,23.40
2018-05-05T01:46:36.797Z,23.47
2018-05-05T01:49:03.224Z,23.47
2018-05-05T01:51:29.540Z,23.37
2018-05-05T01:53:55.933Z,23.44
2018-05-05T01:56:22.252Z,23.45
2018-05-05T01:58:48.628Z,23.48
2018-05-05T02:01:15.030Z,23.47
2018-05-05T02:03:41.360Z,23.43
2018-05-05T02:06:07.755Z,23.46
2018-05-05T02:08:34.204Z,23.42
2018-05-05T02:11:00.518Z,23.41
2018-05-05T02:13:26.850Z,23.40
2018-05-05T02:15:53.189Z,23.41
2018-05-05T02:18:19.559Z,23.33
2018-05-05T02:20:45.941Z,23.37
2018-05-05T02:23:12.394Z,23.36
2018-05-05T02:25:38.729Z,23.33
2018-05-05T02:28:05.065Z,23.35
2018-05-05T02:30:31.396Z,23.35
2018-05-05T02:32:57.732Z,23.31
2018-05-05T02:35:24.091Z,23.32
2018-05-05T02:37:50.441Z,23.31
2018-05-05T02:40:16.763Z,23.31
2018-05-05T02:42:43.146Z,23.32
2018-05-05T02:45:09.480Z,23.31
2018-05-05T02:47:35.811Z,23.26
2018-05-05T02:50:02.223Z,23.34
2018-05-05T02:52:28.556Z,23.27
2018-05-05T02:54:54.936Z,23.27
2018-05-05T02:57:21.314Z,23.27
2018-05-05T02:59:48.664Z,23.30
2018-05-05T03:02:14.997Z,23.28
2018-05-05T03:04:41.388Z,23.26
2018-05-05T03:07:07.760Z,23.23
2018-05-05T03:09:34.099Z,23.22
2018-05-05T03:12:00.443Z,23.24
2018-05-05T03:14:26.798Z,23.23
2018-05-05T03:16:53.110Z,23.21
2018-05-05T03:19:19.427Z,23.13
2018-05-05T03:21:45.804Z,23.23
2018-05-05T03:24:12.163Z,23.17
2018-05-05T03:26:38.537Z,23.19
2018-05-05T03:29:04.908Z,23.20
2018-05-05T03:31:31.338Z,23.19
2018-05-05T03:33:57.682Z,23.16
2018-05-05T03:36:24.006Z,23.29
2018-05-05T03:38:50.385Z,23.26
2018-05-05T03:41:16.730Z,23.27
2018-05-05T03:43:43.052Z,23.27
2018-05-05T03:46:09.417Z,23.28
2018-05-05T03:48:35.795Z,23.33
2018-05-05T03:51:02.126Z,23.28
2018-05-05T03:53:28.495Z,23.31
2018-05-05T03:55:54.820Z,23.35
2018-05-05T03:58:21.175Z,23.31
2018-05-05T04:00:47.505Z,23.37
2018-05-05T04:03:13.872Z,23.41
2018-05-05T04:05:40.229Z,23.47
2018-05-05T04:08:06.552Z,23.58
2018-05-05T04:10:32.942Z,23.55
2018-05-05T04:12:59.288Z,23.56
2018-05-05T04:15:25.648Z,23.57
2018-05-05T04:17:51.974Z,23.64
2018-05-05T04:20:18.355Z,23.68
2018-05-05T04:22:44.757Z,23.70
2018-05-05T04:25:11.114Z,23.68
2018-05-05T04:27:37.503Z,23.75
2018-05-05T04:30:03.901Z,23.71
2018-05-05T04:32:30.321Z,23.73
2018-05-05T04:34:56.676Z,23.80
2018-05-05T04:37:23.088Z,23.81
2018-05-05T04:39:49.509Z,23.77
2018-05-05T04:42:15.942Z,23.81
2018-05-05T04:44:42.292Z,23.87
2018-05-05T04:47:08.673Z,23.84
2018-05-05T04:49:35.035Z,23.89
2018-05-05T04:52:01.366Z,23.91
2018-05-05T04:54:27.712Z,23.90
2018-05-05T04:56:54.046Z,23.90
2018-05-05T04:59:20.380Z,23.96
2018-05-05T05:01:46.835Z,23.91
2018-05-05T05:04:13.159Z,24.01
2018-05-05T05:06:39.505Z,24.02
2018-05-05T05:09:05.927Z,24.03
2018-05-05T05:11:32.331Z,24.05
2018-05-05T05:13:58.664Z,24.04
2018-05-05T05:16:25.076Z,24.09
2018-05-05T05:18:51.392Z,24.07
2018-05-05T05:21:17.762Z,24.10
2018-05-05T05:23:44.083Z,24.16
2018-05-05T05:26:10.443Z,24.14
2018-05-05T05:28:36.825Z,24.14
2018-05-05T05:31:03.185Z,24.22
2018-05-05T05:33:29.523Z,24.24
2018-05-05T05:35:55.992Z,24.29
2018-05-05T05:38:22.341Z,24.30
2018-05-05T05:40:48.712Z,24.28
2018-05-05T05:43:15.055Z,24.29
2018-05-05T05:45:41.424Z,24.38
2018-05-05T05:48:07.778Z,24.42
2018-05-05T05:50:34.189Z,24.52
2018-05-05T05:53:00.592Z,24.56
2018-05-05T05:55:26.964Z,24.57
2018-05-05T05:57:53.368Z,24.63
2018-05-05T06:00:19.740Z,24.60
2018-05-05T06:02:46.113Z,24.72
2018-05-05T06:05:12.436Z,24.72
2018-05-05T06:07:38.792Z,24.78
2018-05-05T06:10:05.181Z,24.84
2018-05-05T06:12:31.512Z,24.84
2018-05-05T06:14:57.865Z,24.88
2018-05-05T06:17:24.247Z,24.93
2018-05-05T06:19:50.568Z,24.96
2018-05-05T06:22:17.063Z,24.96
2018-05-05T06:24:43.386Z,24.99
2018-05-05T06:27:09.728Z,25.04
2018-05-05T06:29:36.116Z,25.07
2018-05-05T06:32:02.520Z,25.11
2018-05-05T06:34:28.896Z,25.03
2018-05-05T06:36:55.242Z,25.18
2018-05-05T06:39:21.684Z,25.20
2018-05-05T06:41:48.063Z,25.23
2018-05-05T06:44:14.446Z,25.20
2018-05-05T06:46:40.824Z,25.22
2018-05-05T06:49:07.261Z,25.25
2018-05-05T06:51:33.637Z,25.31
2018-05-05T06:53:59.951Z,25.32
2018-05-05T06:56:26.282Z,25.34
2018-05-05T06:58:52.620Z,25.37
2018-05-05T07:01:18.948Z,25.39
2018-05-05T07:03:45.296Z,25.40
2018-05-05T07:06:11.629Z,25.43
2018-05-05T07:08:37.977Z,25.43
2018-05-05T07:11:04.334Z,25.42
2018-05-05T07:16:02.968Z,25.49
2018-05-05T07:18:29.324Z,25.47
2018-05-05T07:20:55.648Z,25.54
2018-05-05T07:23:21.987Z,25.53
2018-05-05T07:25:48.302Z,25.56
2018-05-05T07:28:14.655Z,25.51
2018-05-05T07:30:40.986Z,25.58
2018-05-05T07:33:07.335Z,25.60
2018-05-05T07:35:33.707Z,25.62
2018-05-05T07:38:00.036Z,25.66
2018-05-05T07:40:26.414Z,25.61
2018-05-05T07:42:52.744Z,25.68
2018-05-05T07:45:19.111Z,25.69
2018-05-05T07:47:45.436Z,25.68
2018-05-05T07:50:11.771Z,25.72
2018-05-05T07:52:38.092Z,25.68
2018-05-05T07:55:04.457Z,25.74
2018-05-05T07:57:30.805Z,25.75
2018-05-05T07:59:57.167Z,25.74
2018-05-05T08:02:23.504Z,25.74
2018-05-05T08:04:49.832Z,25.73
2018-05-05T08:07:16.279Z,25.77
2018-05-05T08:09:42.652Z,25.68
2018-05-05T08:12:08.976Z,25.78
2018-05-05T08:14:35.374Z,25.76
2018-05-05T08:17:01.733Z,25.79
2018-05-05T08:19:28.060Z,25.80
2018-05-05T08:21:54.392Z,25.82
2018-05-05T08:24:20.718Z,25.80
2018-05-05T08:26:47.104Z,25.75
2018-05-05T08:29:13.496Z,25.85
2018-05-05T08:31:39.783Z,25.80
2018-05-05T08:34:06.210Z,25.77
2018-05-05T08:36:32.551Z,25.81
2018-05-05T08:38:58.901Z,25.80
2018-05-05T08:41:25.228Z,25.83
2018-05-05T08:43:51.553Z,25.82
2018-05-05T08:46:17.951Z,25.79
2018-05-05T08:48:44.338Z,25.82
2018-05-05T08:51:10.684Z,25.80
2018-05-05T08:53:37.003Z,25.73
2018-05-05T08:56:03.353Z,25.78
2018-05-05T08:58:29.674Z,25.79
2018-05-05T09:00:56.060Z,25.68
2018-05-05T09:03:22.376Z,25.82
2018-05-05T09:05:48.769Z,25.82
2018-05-05T09:08:15.096Z,25.79
2018-05-05T09:10:42.459Z,25.78
2018-05-05T09:13:08.820Z,25.82
2018-05-05T09:15:35.153Z,25.79
2018-05-05T09:18:01.500Z,25.84
2018-05-05T09:20:27.862Z,25.85
2018-05-05T09:22:54.187Z,25.84
2018-05-05T09:25:20.520Z,25.84
2018-05-05T09:27:46.987Z,25.84
2018-05-05T09:30:13.310Z,25.88
2018-05-05T09:32:39.632Z,25.89
2018-05-05T09:35:05.977Z,25.90
2018-05-05T09:37:32.304Z,25.90
2018-05-05T09:39:58.644Z,25.94
2018-05-05T09:42:25.024Z,25.92
2018-05-05T09:44:51.376Z,25.93
2018-05-05T09:47:17.711Z,25.97
2018-05-05T09:49:44.034Z,26.04
2018-05-05T09:52:10.394Z,26.02
2018-05-05T09:54:36.728Z,26.03
2018-05-05T09:57:03.104Z,25.97
2018-05-05T09:59:29.469Z,26.07
2018-05-05T10:01:55.793Z,26.14
2018-05-05T10:04:22.147Z,26.13
2018-05-05T10:06:48.529Z,26.13
2018-05-05T10:09:14.936Z,26.15
2018-05-05T10:11:41.198Z,26.19
2018-05-05T10:14:07.554Z,26.23
2018-05-05T10:16:34.011Z,26.21
2018-05-05T10:19:00.353Z,26.22
2018-05-05T10:21:26.721Z,26.23
2018-05-05T10:23:53.243Z,26.25
2018-05-05T10:26:19.497Z,26.20
2018-05-05T10:28:45.866Z,26.32
2018-05-05T10:31:12.178Z,26.32
2018-05-05T10:33:39.276Z,26.33
2018-05-05T10:36:05.653Z,26.33
2018-05-05T10:38:31.972Z,26.32
2018-05-05T10:40:58.306Z,26.34
2018-05-05T10:43:24.678Z,26.36
2018-05-05T10:45:51.042Z,26.34
2018-05-05T10:48:17.456Z,26.41
2018-05-05T10:50:43.826Z,26.40
2018-05-05T10:53:10.184Z,26.41
2018-05-05T10:55:36.597Z,26.41
2018-05-05T10:58:02.861Z,26.40
2018-05-05T11:00:29.203Z,26.38
2018-05-05T11:02:55.532Z,26.43
2018-05-05T11:05:21.856Z,26.45
2018-05-05T11:07:48.270Z,26.44
2018-05-05T11:10:15.661Z,26.43
2018-05-05T11:12:41.996Z,26.38
2018-05-05T11:15:08.316Z,26.49
2018-05-05T11:17:34.766Z,26.41
2018-05-05T11:20:01.175Z,26.45
2018-05-05T11:22:27.562Z,26.46
2018-05-05T11:24:53.880Z,26.48
2018-05-05T11:27:20.212Z,26.46
2018-05-05T11:29:46.559Z,26.47
2018-05-05T11:32:12.929Z,26.47
2018-05-05T11:34:39.260Z,26.46
2018-05-05T11:37:05.650Z,26.48
2018-05-05T11:39:31.936Z,26.48
2018-05-05T11:41:58.264Z,26.45
2018-05-05T11:44:24.591Z,26.47
2018-05-05T11:46:50.926Z,26.48
2018-05-05T11:49:17.280Z,26.50
2018-05-05T11:51:43.594Z,26.50
2018-05-05T11:54:09.970Z,26.56
2018-05-05T11:56:36.342Z,26.53
2018-05-05T11:59:02.668Z,26.54
2018-05-05T12:01:28.993Z,26.47
2018-05-05T12:03:55.368Z,26.50
2018-05-05T12:06:21.676Z,26.47
2018-05-05T12:08:47.987Z,26.50
2018-05-05T12:11:14.324Z,26.55
2018-05-05T12:13:40.656Z,26.47
2018-05-05T12:16:06.976Z,26.49
2018-05-05T12:18:33.304Z,26.47
2018-05-05T12:20:59.639Z,26.46
2018-05-05T12:23:25.992Z,26.35
2018-05-05T12:25:52.356Z,26.24
2018-05-05T12:28:18.675Z,26.37
2018-05-05T12:30:45.013Z,26.48
2018-05-05T12:33:11.334Z,26.47
2018-05-05T12:35:37.662Z,26.49
2018-05-05T12:38:04.007Z,26.41
2018-05-05T12:40:30.328Z,26.43
2018-05-05T12:42:56.635Z,26.45
2018-05-05T12:45:22.957Z,26.39
2018-05-05T12:47:49.292Z,26.41
2018-05-05T12:50:15.623Z,26.41
2018-05-05T12:52:42.018Z,26.41
2018-05-05T12:55:08.340Z,26.41
2018-05-05T12:57:34.701Z,26.41
2018-05-05T13:00:01.036Z,26.40
2018-05-05T13:02:27.351Z,26.40
2018-05-05T13:04:53.669Z,26.38
2018-05-05T13:07:20.026Z,26.35
2018-05-05T13:09:46.348Z,26.38
2018-05-05T13:12:12.678Z,26.38
2018-05-05T13:14:39.005Z,26.39
2018-05-05T13:17:05.366Z,26.34
2018-05-05T13:19:31.709Z,26.29
2018-05-05T13:21:58.038Z,26.33
2018-05-05T13:24:24.373Z,26.34
2018-05-05T13:26:50.689Z,26.33
2018-05-05T13:29:17.060Z,26.36
2018-05-05T13:31:43.363Z,26.35
2018-05-05T13:34:09.690Z,26.32
2018-05-05T13:36:36.013Z,26.36
2018-05-05T13:39:02.965Z,26.30
2018-05-05T13:41:29.291Z,26.32
2018-05-05T13:43:55.609Z,26.27
2018-05-05T13:46:21.927Z,26.31
2018-05-05T13:48:48.308Z,26.33
2018-05-05T13:51:14.799Z,26.27
2018-05-05T13:53:41.130Z,26.29
2018-05-05T13:56:07.434Z,26.34
2018-05-05T13:58:33.743Z,26.39
2018-05-05T14:01:00.095Z,26.34
2018-05-05T14:03:26.405Z,26.34
2018-05-05T14:05:52.747Z,26.35
2018-05-05T14:08:19.081Z,26.32
2018-05-05T14:10:45.403Z,26.30
2018-05-05T14:13:11.720Z,26.34
2018-05-05T14:15:38.036Z,26.32
2018-05-05T14:18:04.355Z,26.32
2018-05-05T14:20:30.691Z,26.32
2018-05-05T14:22:57.081Z,26.31
2018-05-05T14:25:23.396Z,26.32
2018-05-05T14:27:49.720Z,26.24
2018-05-05T14:30:16.076Z,26.32
2018-05-05T14:32:42.394Z,26.32
2018-05-05T14:35:08.732Z,26.32
2018-05-05T14:37:35.047Z,26.34
2018-05-05T14:40:01.420Z,26.30
2018-05-05T14:42:27.736Z,26.27
2018-05-05T14:44:54.074Z,26.22
2018-05-05T14:47:20.397Z,26.26
2018-05-05T14:49:46.723Z,26.24
2018-05-05T14:52:13.044Z,26.28
2018-05-05T14:54:39.372Z,26.30
2018-05-05T14:57:05.718Z,26.13
2018-05-05T14:59:32.046Z,26.24
2018-05-05T15:01:58.384Z,26.29
2018-05-05T15:04:24.735Z,26.26
2018-05-05T15:06:51.065Z,26.24
2018-05-05T15:09:17.406Z,26.28
2018-05-05T15:11:43.717Z,26.27
2018-05-05T15:14:10.055Z,26.27
2018-05-05T15:16:36.381Z,26.22
2018-05-05T15:19:02.774Z,26.18
2018-05-05T15:21:29.056Z,26.21
2018-05-05T15:23:55.471Z,26.26
2018-05-05T15:26:21.785Z,26.23
2018-05-05T15:28:48.114Z,26.26
2018-05-05T15:31:14.477Z,26.24
2018-05-05T15:33:40.841Z,26.23
2018-05-05T15:36:07.184Z,26.22
2018-05-05T15:38:33.544Z,26.24
2018-05-05T15:40:59.856Z,26.17
2018-05-05T15:43:26.184Z,26.23
2018-05-05T15:45:52.555Z,26.17
2018-05-05T15:48:18.872Z,26.16
2018-05-05T15:50:45.232Z,26.18
2018-05-05T15:53:11.570Z,26.19
2018-05-05T15:55:37.984Z,26.18
2018-05-05T15:58:04.275Z,26.17
2018-05-05T16:00:30.600Z,26.09
2018-05-05T16:02:56.951Z,26.11
2018-05-05T16:05:23.280Z,26.12
2018-05-05T16:07:49.652Z,26.16
2018-05-05T16:10:16.007Z,26.19
2018-05-05T16:12:42.372Z,26.14
2018-05-05T16:15:08.756Z,26.15
2018-05-05T16:17:35.120Z,26.17
2018-05-05T16:20:01.434Z,26.12
2018-05-05T16:22:27.800Z,26.12
2018-05-05T16:24:54.131Z,26.17
2018-05-05T16:27:20.455Z,26.14
2018-05-05T16:29:46.829Z,26.10
2018-05-05T16:32:13.152Z,26.13
2018-05-05T16:34:39.481Z,26.07
2018-05-05T16:37:05.848Z,26.05
2018-05-05T16:39:32.172Z,26.04
2018-05-05T16:41:58.558Z,26.08
2018-05-05T16:44:24.891Z,26.05
2018-05-05T16:46:51.215Z,26.09
2018-05-05T16:49:17.568Z,26.04
2018-05-05T16:51:43.934Z,26.03
2018-05-05T16:54:10.271Z,26.11
2018-05-05T16:56:36.584Z,26.01
2018-05-05T16:59:02.944Z,26.05
2018-05-05T17:01:29.316Z,26.04
2018-05-05T17:03:55.687Z,26.04
2018-05-05T17:06:22.047Z,26.10
2018-05-05T17:08:48.425Z,26.06
2018-05-05T17:11:14.749Z,26.07
2018-05-05T17:13:41.070Z,26.04
2018-05-05T17:16:07.542Z,26.00
2018-05-05T17:18:33.880Z,25.95
2018-05-05T17:21:00.203Z,25.75
2018-05-05T17:23:26.560Z,25.85
2018-05-05T17:25:52.868Z,25.95
2018-05-05T17:28:19.240Z,25.93
2018-05-05T17:30:45.627Z,25.93
2018-05-05T17:33:11.951Z,25.84
2018-05-05T17:35:38.269Z,25.89
2018-05-05T17:38:04.663Z,25.95
2018-05-05T17:40:31.045Z,25.88
2018-05-05T17:42:57.368Z,25.93
2018-05-05T17:45:23.695Z,25.92
2018-05-05T17:47:50.060Z,25.78
2018-05-05T17:50:16.446Z,25.87
2018-05-05T17:52:42.804Z,25.79
2018-05-05T17:55:09.124Z,25.81
2018-05-05T17:57:35.484Z,25.77
2018-05-05T18:00:01.816Z,25.68
2018-05-05T18:02:28.184Z,25.83
2018-05-05T18:04:54.519Z,25.74
2018-05-05T18:07:20.843Z,25.71
2018-05-05T18:09:47.212Z,25.73
2018-05-05T18:12:13.572Z,25.75
2018-05-05T18:14:39.880Z,25.72
2018-05-05T18:17:06.296Z,25.66
2018-05-05T18:19:32.614Z,25.70
2018-05-05T18:21:58.938Z,25.68
2018-05-05T18:24:25.335Z,25.62
2018-05-05T18:26:51.653Z,25.59
2018-05-05T18:29:18.072Z,25.62
2018-05-05T18:31:44.392Z,25.60
2018-05-05T18:34:10.716Z,25.62
2018-05-05T18:36:37.065Z,25.61
2018-05-05T18:39:03.380Z,25.64
2018-05-05T18:41:29.698Z,25.54
2018-05-05T18:43:56.048Z,25.54
2018-05-05T18:46:22.400Z,25.55
2018-05-05T18:48:48.798Z,25.51
2018-05-05T18:51:15.147Z,25.51
2018-05-05T18:53:41.548Z,25.47
2018-05-05T18:56:07.900Z,25.52
2018-05-05T18:58:34.295Z,25.52
2018-05-05T19:01:00.649Z,25.46
2018-05-05T19:03:26.995Z,25.44
2018-05-05T19:05:53.327Z,25.48
2018-05-05T19:08:19.675Z,25.42
2018-05-05T19:10:45.984Z,25.51
2018-05-05T19:13:12.348Z,25.44
2018-05-05T19:15:38.656Z,25.50
2018-05-05T19:18:05.076Z,25.36
2018-05-05T19:20:31.453Z,25.43
2018-05-05T19:22:57.771Z,25.44
2018-05-05T19:25:24.159Z,25.40
2018-05-05T19:27:50.523Z,25.32
2018-05-05T19:30:16.895Z,25.37
2018-05-05T19:32:43.264Z,25.29
2018-05-05T19:35:09.588Z,25.36
2018-05-05T19:37:35.948Z,25.39
2018-05-05T19:40:02.292Z,25.30
2018-05-05T19:42:28.640Z,25.34
2018-05-05T19:44:54.957Z,25.27
2018-05-05T19:47:21.313Z,25.33
2018-05-05T19:49:47.629Z,25.32
2018-05-05T19:52:13.993Z,25.27
2018-05-05T19:54:40.353Z,25.31
2018-05-05T19:57:06.714Z,25.29
2018-05-05T19:59:33.029Z,25.22
2018-05-05T20:01:59.395Z,25.29
2018-05-05T20:04:25.744Z,25.25
2018-05-05T20:06:52.049Z,25.17
2018-05-05T20:09:18.451Z,25.19
2018-05-05T20:11:44.764Z,25.31
2018-05-05T20:14:11.122Z,25.19
2018-05-05T20:16:37.482Z,25.15
2018-05-05T20:19:03.811Z,25.13
2018-05-05T20:21:30.137Z,25.13
2018-05-05T20:23:56.455Z,25.10
2018-05-05T20:26:22.800Z,25.12
2018-05-05T20:28:49.117Z,25.10
2018-05-05T20:31:15.490Z,25.08
2018-05-05T20:33:41.820Z,25.07
2018-05-05T20:36:08.138Z,25.07
2018-05-05T20:38:34.469Z,25.03
2018-05-05T20:41:00.845Z,25.04
2018-05-05T20:43:27.168Z,24.99
2018-05-05T20:45:53.559Z,25.01
2018-05-05T20:48:19.870Z,25.03
2018-05-05T20:50:46.296Z,24.98
2018-05-05T20:53:12.595Z,25.00
2018-05-05T20:55:38.903Z,24.96
2018-05-05T20:58:05.251Z,24.93
2018-05-05T21:00:31.561Z,24.95
2018-05-05T21:02:57.923Z,24.86
2018-05-05T21:05:24.245Z,24.88
2018-05-05T21:07:50.595Z,24.85
2018-05-05T21:10:16.910Z,24.90
2018-05-05T21:12:43.227Z,24.81
2018-05-05T21:15:09.600Z,24.84
2018-05-05T21:17:35.931Z,24.79
2018-05-05T21:20:02.430Z,24.84
2018-05-05T21:22:28.834Z,24.85
2018-05-05T21:24:55.164Z,24.84
2018-05-05T21:27:21.512Z,24.77
2018-05-05T21:29:47.856Z,24.79
2018-05-05T21:32:14.181Z,24.73
2018-05-05T21:34:40.492Z,24.75
2018-05-05T21:37:06.848Z,24.76
2018-05-05T21:39:33.205Z,24.73
2018-05-05T21:41:59.531Z,24.80
2018-05-05T21:44:25.843Z,24.75
2018-05-05T21:46:52.156Z,24.73
2018-05-05T21:49:18.552Z,24.72
2018-05-05T21:51:44.933Z,24.69
2018-05-05T21:54:11.295Z,24.71
2018-05-05T21:56:37.662Z,24.68
2018-05-05T21:59:03.979Z,24.67
2018-05-05T22:01:30.324Z,24.67
2018-05-05T22:03:56.662Z,24.66
2018-05-05T22:06:22.976Z,24.65
2018-05-05T22:08:49.319Z,24.65
2018-05-05T22:11:15.675Z,24.60
2018-05-05T22:13:42.080Z,24.58
2018-05-05T22:16:08.437Z,24.62
2018-05-05T22:18:34.787Z,24.63
2018-05-05T22:21:01.110Z,24.62
2018-05-05T22:23:27.475Z,24.61
2018-05-05T22:25:53.796Z,24.58
2018-05-05T22:28:20.164Z,24.52
2018-05-05T22:30:46.529Z,24.54
2018-05-05T22:33:12.889Z,24.59
2018-05-05T22:35:39.315Z,24.54
2018-05-05T22:38:05.603Z,24.51
2018-05-05T22:40:31.980Z,24.48
2018-05-05T22:42:58.291Z,24.55
2018-05-05T22:45:24.649Z,24.52
2018-05-05T22:47:51.735Z,24.52
2018-05-05T22:50:18.075Z,24.53
2018-05-05T22:52:44.396Z,24.54
2018-05-05T22:55:10.745Z,24.51
2018-05-05T22:57:37.061Z,24.50
2018-05-05T23:00:03.387Z,24.48
2018-05-05T23:02:29.739Z,24.45
2018-05-05T23:04:56.101Z,24.47
2018-05-05T23:07:22.423Z,24.45
2018-05-05T23:09:48.798Z,24.44
2018-05-05T23:12:15.139Z,24.43
2018-05-05T23:14:41.500Z,24.43
2018-05-05T23:17:07.824Z,24.48
2018-05-05T23:19:34.153Z,24.38
2018-05-05T23:22:00.483Z,24.44
2018-05-05T23:24:26.799Z,24.36
2018-05-05T23:26:53.210Z,24.38
2018-05-05T23:29:19.518Z,24.40
2018-05-05T23:31:45.872Z,24.41
2018-05-05T23:34:12.188Z,24.35
2018-05-05T23:36:38.540Z,24.36
2018-05-05T23:39:04.931Z,24.31
2018-05-05T23:41:31.260Z,24.33
2018-05-05T23:43:57.584Z,24.34
2018-05-05T23:46:23.933Z,24.28
2018-05-05T23:48:50.244Z,24.29
2018-05-05T23:51:16.629Z,24.33
2018-05-05T23:53:42.948Z,24.25
2018-05-05T23:56:09.301Z,24.04
2018-05-05T23:58:35.612Z,24.24
